Time;durP1;ratioP1;P1;durP2;ratioP2;P2;SDS_P1;SDS_P2;PMS_P1;PMS_P2;Temp;Humidity;BMP_temperature;BMP_pressure;BME280_temperature;BME280_humidity;BME280_pressure;Samples;Min_cycle;Max_cycle;Signal;HPM_P1;HPM_P2
2022/11/12 00:01:32;;;;;;;21.80;15.90;;;;;;;13.43;87.54;95970.38;5011235;28;20195;-86
2022/11/12 00:04:00;;;;;;;22.13;16.23;;;;;;;13.13;87.48;95928.19;5011168;28;20228;-86
2022/11/12 00:06:27;;;;;;;24.67;17.03;;;;;;;13.43;87.51;95968.63;5011683;28;20219;-86
2022/11/12 00:08:54;;;;;;;18.87;14.67;;;;;;;13.40;87.62;95962.91;4999878;28;20177;-85
2022/11/12 00:11:20;;;;;;;21.23;16.80;;;;;;;13.34;87.50;95953.09;4992427;28;20193;-88
2022/11/12 00:13:47;;;;;;;23.47;16.47;;;;;;;13.35;87.52;95960.72;4992455;28;20188;-84
2022/11/12 00:16:14;;;;;;;20.57;15.83;;;;;;;13.06;87.41;95909.88;5000540;28;20641;-85
2022/11/12 00:18:41;;;;;;;22.93;15.67;;;;;;;13.04;87.44;95906.63;5008841;28;20656;-83
2022/11/12 00:21:09;;;;;;;21.00;15.23;;;;;;;13.32;87.21;95949.84;5005711;28;20207;-84
2022/11/12 00:23:37;;;;;;;21.03;15.43;;;;;;;13.30;87.21;95957.69;4999593;28;20221;-85
2022/11/12 00:26:04;;;;;;;23.10;17.10;;;;;;;13.29;87.21;95966.31;4992155;28;20200;-84
2022/11/12 00:28:31;;;;;;;20.07;15.17;;;;;;;13.27;87.18;95963.06;4991370;28;20680;-87
2022/11/12 00:30:58;;;;;;;19.80;16.13;;;;;;;13.26;87.08;95969.97;5000286;28;20193;-84
2022/11/12 00:33:25;;;;;;;22.90;15.63;;;;;;;13.23;87.22;95972.78;4991524;28;20201;-84
2022/11/12 00:35:52;;;;;;;20.23;15.30;;;;;;;13.18;87.28;95969.72;4991239;28;20189;-85
2022/11/12 00:38:20;;;;;;;20.03;15.60;;;;;;;13.21;87.24;95968.66;4991166;28;20292;-85
2022/11/12 00:40:47;;;;;;;24.03;16.50;;;;;;;13.20;87.40;95977.31;4998869;28;20280;-86
2022/11/12 00:43:14;;;;;;;21.33;15.70;;;;;;;13.20;87.16;95972.16;5010532;28;20223;-86
2022/11/12 00:45:42;;;;;;;21.87;16.53;;;;;;;13.19;87.12;95965.41;5010424;28;20644;-84
2022/11/12 00:48:09;;;;;;;23.00;15.73;;;;;;;13.14;87.07;95965.78;5010898;28;20188;-85
2022/11/12 00:50:36;;;;;;;21.37;16.33;;;;;;;12.84;86.96;95909.97;5019764;28;20197;-85
2022/11/12 00:53:03;;;;;;;21.67;15.83;;;;;;;12.92;86.96;95923.00;4992374;28;20180;-85
2022/11/12 00:55:31;;;;;;;22.50;16.73;;;;;;;12.93;87.04;95910.97;5007897;28;20199;-86
2022/11/12 00:58:01;;;;;;;19.27;15.97;;;;;;;13.18;87.27;95959.47;5011934;28;20196;-85
2022/11/12 01:00:28;;;;;;;20.20;14.93;;;;;;;13.04;87.13;95934.06;5010742;28;20189;-86
2022/11/12 01:02:55;;;;;;;21.67;16.93;;;;;;;13.19;87.17;95944.84;5006854;28;20217;-84
2022/11/12 01:05:22;;;;;;;19.43;15.00;;;;;;;12.83;87.28;95880.09;5005723;28;20228;-85
2022/11/12 01:07:49;;;;;;;20.47;14.63;;;;;;;13.16;87.41;95932.25;5011377;28;20184;-85
2022/11/12 01:10:16;;;;;;;19.33;14.93;;;;;;;13.06;87.39;95920.16;5015373;28;20188;-84
2022/11/12 01:12:44;;;;;;;22.53;15.70;;;;;;;13.15;87.23;95946.84;5017200;28;20196;-84
2022/11/12 01:15:11;;;;;;;20.30;16.17;;;;;;;12.95;87.26;95914.22;5017619;28;20191;-85
2022/11/12 01:17:38;;;;;;;22.47;15.73;;;;;;;13.15;87.42;95948.59;5019184;28;20187;-85
2022/11/12 01:20:06;;;;;;;21.67;15.53;;;;;;;13.15;87.19;95941.72;5018901;28;20264;-87
2022/11/12 01:22:33;;;;;;;19.50;15.57;;;;;;;13.08;87.46;95930.28;5019858;28;20368;-85
2022/11/12 01:25:00;;;;;;;23.57;16.10;;;;;;;13.14;87.38;95940.09;5022927;28;20192;-86
2022/11/12 01:27:27;;;;;;;20.87;16.23;;;;;;;13.15;87.38;95951.19;5022662;28;20200;-86
2022/11/12 01:29:55;;;;;;;19.40;14.87;;;;;;;12.95;87.36;95915.06;5025811;28;20185;-84
2022/11/12 01:32:22;;;;;;;20.57;15.63;;;;;;;13.11;87.33;95935.19;5023676;28;20192;-86
2022/11/12 01:34:50;;;;;;;19.40;15.37;;;;;;;13.14;87.42;95939.28;5023896;28;20192;-86
2022/11/12 01:37:17;;;;;;;21.50;15.50;;;;;;;13.14;87.56;95934.94;5024312;28;20203;-86
2022/11/12 01:39:44;;;;;;;22.43;16.77;;;;;;;12.96;87.19;95909.00;5022206;28;20197;-85
2022/11/12 01:42:12;;;;;;;24.13;15.60;;;;;;;13.15;87.35;95934.00;5019578;28;20192;-84
2022/11/12 01:44:44;;;;;;;21.80;15.57;;;;;;;13.03;87.30;95909.28;5012137;28;20189;-84
2022/11/12 01:47:17;;;;;;;20.23;16.07;;;;;;;13.14;87.23;95924.69;5011468;28;20209;-84
2022/11/12 01:49:52;;;;;;;23.47;16.17;;;;;;;12.87;87.40;95889.19;5012504;28;20297;-86
2022/11/12 01:52:24;;;;;;;20.83;15.50;;;;;;;13.07;87.02;95915.81;5012088;28;20196;-87
2022/11/12 01:54:54;;;;;;;21.60;16.03;;;;;;;12.76;86.91;95854.09;5011372;28;20267;-85
2022/11/12 01:57:25;;;;;;;20.10;14.87;;;;;;;13.14;87.25;95916.97;5010059;28;20196;-85
2022/11/12 01:59:56;;;;;;;22.50;15.30;;;;;;;12.93;87.95;95885.31;5011633;28;20204;-85
2022/11/12 02:02:24;;;;;;;21.83;17.37;;;;;;;13.15;87.11;95915.22;5011101;28;20582;-85
2022/11/12 02:04:51;;;;;;;20.57;16.03;;;;;;;13.14;87.27;95913.59;5011269;28;20711;-85
2022/11/12 02:07:19;;;;;;;20.43;15.87;;;;;;;13.14;87.30;95919.53;4999405;28;20204;-87
2022/11/12 02:09:46;;;;;;;21.73;15.73;;;;;;;13.13;87.30;95923.06;4995465;28;20197;-87
2022/11/12 02:13:56;;;;;;;22.37;16.07;;;;;;;12.93;87.34;95883.53;5003044;28;20196;-85
2022/11/12 02:15:03;;;;;;;20.53;16.10;;;;;;;13.10;87.25;95905.31;5000418;28;20181;-85
2022/11/12 02:17:31;;;;;;;21.33;15.40;;;;;;;13.07;87.35;95914.06;4997587;28;20232;-84
2022/11/12 02:19:59;;;;;;;20.10;15.17;;;;;;;13.13;87.36;95914.53;5015289;28;20196;-85
2022/11/12 02:22:27;;;;;;;19.33;14.03;;;;;;;12.72;87.42;95857.00;5017124;28;20199;-86
2022/11/12 02:24:54;;;;;;;21.43;15.47;;;;;;;12.75;87.56;95877.31;5016479;28;20184;-85
2022/11/12 02:27:21;;;;;;;21.57;14.43;;;;;;;12.94;87.35;95897.19;5014059;28;20195;-84
2022/11/12 02:29:48;;;;;;;22.77;15.87;;;;;;;13.10;87.39;95922.47;5000380;28;20201;-85
2022/11/12 02:32:15;;;;;;;19.23;14.57;;;;;;;13.10;87.33;95925.84;4996875;28;20185;-86
2022/11/12 02:34:42;;;;;;;22.33;15.60;;;;;;;12.86;87.46;95882.41;4997207;28;20201;-86
2022/11/12 02:37:09;;;;;;;22.00;16.13;;;;;;;12.99;87.36;95898.44;4996326;28;20196;-85
2022/11/12 02:39:38;;;;;;;19.07;14.47;;;;;;;13.10;87.20;95925.84;5009293;28;20204;-84
2022/11/12 02:42:05;;;;;;;21.70;15.03;;;;;;;13.09;87.57;95918.28;4996989;28;20201;-87
2022/11/12 02:44:33;;;;;;;18.13;13.60;;;;;;;13.00;87.61;95905.25;4995745;28;20240;-85
2022/11/12 02:46:59;;;;;;;16.77;13.67;;;;;;;13.09;87.26;95918.28;5018516;28;20172;-85
2022/11/12 02:49:26;;;;;;;18.77;13.33;;;;;;;13.03;87.43;95904.16;5034439;28;20215;-84
2022/11/12 02:51:53;;;;;;;17.97;13.37;;;;;;;12.74;87.44;95868.00;5029976;28;20283;-87
2022/11/12 02:54:20;;;;;;;14.63;11.07;;;;;;;13.01;87.38;95909.44;5017816;28;20191;-85
2022/11/12 02:56:48;;;;;;;16.13;12.40;;;;;;;12.93;87.45;95898.16;5018928;28;20192;-86
2022/11/12 02:59:16;;;;;;;13.93;11.13;;;;;;;12.87;87.18;95893.50;5029612;28;20255;-85
2022/11/12 03:01:43;;;;;;;14.30;11.87;;;;;;;12.86;87.28;95879.00;5023455;28;20196;-85
2022/11/12 03:04:10;;;;;;;14.70;11.07;;;;;;;12.55;87.13;95830.94;5033865;28;20227;-85
2022/11/12 03:06:36;;;;;;;15.07;11.10;;;;;;;12.74;87.04;95871.38;5033729;28;20386;-84
2022/11/12 03:09:06;;;;;;;15.97;11.13;;;;;;;12.46;86.87;95821.41;5036862;28;20188;-85
2022/11/12 03:11:32;;;;;;;14.50;9.57;;;;;;;12.97;87.07;95909.81;5028618;28;20307;-85
2022/11/12 03:14:01;;;;;;;12.30;9.30;;;;;;;12.99;86.93;95918.19;5012965;28;20250;-86
2022/11/12 03:16:28;;;;;;;14.20;10.60;;;;;;;12.75;86.93;95877.31;5016119;28;20188;-85
2022/11/12 03:18:55;;;;;;;10.70;9.07;;;;;;;12.58;86.84;95857.31;5016148;28;20205;-86
2022/11/12 03:21:22;;;;;;;10.63;9.00;;;;;;;12.85;86.81;95892.78;5019156;28;20188;-85
2022/11/12 03:23:49;;;;;;;10.33;8.43;;;;;;;12.93;86.84;95916.94;5015814;28;20819;-85
2022/11/12 03:26:16;;;;;;;10.97;8.63;;;;;;;12.49;86.70;95854.53;4997892;28;20203;-85
2022/11/12 03:28:42;;;;;;;9.67;7.80;;;;;;;12.82;86.78;95914.38;5014225;28;20203;-86
2022/11/12 03:31:11;;;;;;;10.67;8.27;;;;;;;12.85;86.78;95924.41;5017736;28;20188;-83
2022/11/12 03:33:39;;;;;;;8.73;7.60;;;;;;;12.85;86.63;95928.75;5014809;28;20586;-85
2022/11/12 03:36:06;;;;;;;9.77;7.63;;;;;;;12.59;86.42;95890.53;4998939;28;20247;-87
2022/11/12 03:38:33;;;;;;;10.67;6.90;;;;;;;12.76;86.30;95922.56;4999263;28;20201;-84
2022/11/12 03:41:00;;;;;;;8.13;6.90;;;;;;;12.75;86.32;95918.38;4997668;28;20304;-85
2022/11/12 03:43:27;;;;;;;11.60;7.50;;;;;;;12.73;86.14;95915.13;5000743;28;20231;-86
2022/11/12 03:45:54;;;;;;;7.80;7.00;;;;;;;12.68;86.00;95905.22;4998823;28;20196;-84
2022/11/12 03:48:22;;;;;;;7.77;6.17;;;;;;;12.38;86.01;95862.22;4997297;28;20189;-84
2022/11/12 03:50:49;;;;;;;6.60;5.90;;;;;;;12.74;85.79;95912.44;5012565;28;20204;-85
2022/11/12 03:53:16;;;;;;;6.63;5.90;;;;;;;12.73;85.82;95917.69;5012070;28;20196;-84
2022/11/12 03:55:43;;;;;;;7.30;5.87;;;;;;;12.71;85.85;95917.81;5013346;28;20219;-85
2022/11/12 03:58:10;;;;;;;6.03;5.00;;;;;;;12.71;85.48;95924.69;5012114;28;20207;-81
2022/11/12 04:00:37;;;;;;;7.47;6.27;;;;;;;12.69;85.54;95922.22;5007289;28;20189;-82
2022/11/12 04:03:04;;;;;;;8.73;5.47;;;;;;;12.64;85.41;95915.84;4994246;28;20188;-82
2022/11/12 04:08:37;;;;;;;7.17;5.50;;;;;;;12.58;85.16;95903.50;5007959;28;20207;-84
2022/11/12 04:11:06;;;;;;;6.40;5.30;;;;;;;12.65;85.50;95917.47;4992883;28;20310;-83
2022/11/12 04:13:33;;;;;;;5.47;4.97;;;;;;;12.62;85.66;95915.97;4993239;28;20205;-82
2022/11/12 04:21:56;;;;;;;4.67;4.23;;;;;;;12.52;85.56;95913.31;4992250;28;20603;-82
2022/11/12 04:27:14;;;;;;;5.10;4.60;;;;;;;12.34;85.61;95883.94;5011951;28;20219;-84
2022/11/12 04:32:26;;;;;;;5.00;4.50;;;;;;;11.88;85.24;95815.69;5012019;28;20303;-82
2022/11/12 04:34:53;;;;;;;4.43;4.03;;;;;;;12.05;85.70;95848.53;5011815;28;20738;-82
2022/11/12 04:37:23;;;;;;;4.87;4.37;;;;;;;12.34;85.35;95907.00;5011587;28;20690;-84
2022/11/12 04:39:50;;;;;;;5.73;4.70;;;;;;;12.33;85.37;95904.59;5014991;28;20184;-83
2022/11/12 04:45:02;;;;;;;4.87;4.47;;;;;;;12.22;85.32;95898.53;5026746;28;20612;-84
2022/11/12 04:47:31;;;;;;;5.23;4.73;;;;;;;12.23;85.39;95905.28;5011370;28;20197;-81
2022/11/12 04:49:58;;;;;;;6.03;4.50;;;;;;;12.23;85.01;95894.22;5003987;28;20192;-81
2022/11/12 04:52:27;;;;;;;4.37;4.00;;;;;;;12.22;85.07;95908.00;4997192;28;20185;-84
2022/11/12 04:54:54;;;;;;;6.23;4.90;;;;;;;12.23;84.84;95912.19;4993913;28;20576;-84
2022/11/12 04:57:21;;;;;;;5.27;4.40;;;;;;;11.77;84.55;95839.53;4996038;28;20195;-86
2022/11/12 04:59:48;;;;;;;4.93;4.43;;;;;;;12.22;84.52;95911.38;4992920;28;20701;-84
2022/11/12 05:02:15;;;;;;;6.37;4.17;;;;;;;12.23;84.47;95917.31;4992355;28;20209;-82
2022/11/12 05:04:42;;;;;;;5.60;4.77;;;;;;;12.24;84.43;95918.94;5000667;28;20319;-79
2022/11/12 05:07:09;;;;;;;5.50;4.77;;;;;;;12.24;84.17;95913.78;5011674;28;20220;-84
2022/11/12 05:09:38;;;;;;;5.07;4.57;;;;;;;12.24;84.17;95918.94;5015647;28;20638;-82
2022/11/12 05:12:06;;;;;;;5.10;4.60;;;;;;;12.25;84.17;95929.06;5032627;28;20184;-79
2022/11/12 05:14:33;;;;;;;4.60;4.20;;;;;;;12.25;84.13;95925.69;5032741;28;20189;-82
2022/11/12 05:17:00;;;;;;;7.23;5.23;;;;;;;12.26;84.15;95929.88;5032144;28;20188;-83
2022/11/12 05:19:26;;;;;;;5.03;4.27;;;;;;;12.26;84.31;95935.84;5027855;28;20226;-83
2022/11/12 05:22:06;;;;;;;5.07;4.53;;;;;;;12.26;84.17;95937.56;5022880;28;20195;-82
2022/11/12 05:24:44;;;;;;;5.13;4.53;;;;;;;12.27;84.26;95941.78;5021088;28;20235;-80
2022/11/12 05:27:14;;;;;;;6.97;4.77;;;;;;;12.27;84.17;95944.34;5017498;28;20655;-79
2022/11/12 05:29:41;;;;;;;5.23;4.73;;;;;;;12.21;84.07;95932.78;5017416;28;20203;-80
2022/11/12 05:32:10;;;;;;;4.53;4.13;;;;;;;12.20;84.06;95927.78;5016668;28;20647;-82
2022/11/12 05:34:37;;;;;;;5.43;4.40;;;;;;;12.01;83.71;95903.56;5016241;28;20227;-81
2022/11/12 05:37:06;;;;;;;5.87;4.50;;;;;;;12.01;83.75;95897.63;5018414;28;20196;-83
2022/11/12 05:39:33;;;;;;;5.77;4.83;;;;;;;12.32;83.57;95949.94;5017073;28;20204;-83
2022/11/12 05:42:01;;;;;;;9.07;5.17;;;;;;;12.33;83.56;95937.94;5022096;28;20188;-84
2022/11/12 05:44:30;;;;;;;5.30;4.80;;;;;;;11.91;83.49;95879.53;5026592;28;20230;-84
2022/11/12 05:46:57;;;;;;;5.13;4.63;;;;;;;12.37;83.50;95950.41;5024969;28;20196;-84
2022/11/12 05:49:25;;;;;;;5.50;4.83;;;;;;;12.41;83.39;95950.97;5017504;28;20224;-83
2022/11/12 05:51:59;;;;;;;5.37;4.83;;;;;;;12.44;83.13;95948.19;5016047;28;20193;-83
2022/11/12 05:54:26;;;;;;;5.43;4.83;;;;;;;12.26;83.12;95907.63;5015242;28;20270;-85
2022/11/12 05:56:53;;;;;;;6.93;5.43;;;;;;;12.54;83.31;95949.09;5013902;28;20544;-85
2022/11/12 05:59:22;;;;;;;5.13;4.63;;;;;;;12.60;83.09;95950.38;5014789;28;20196;-85
2022/11/12 06:01:49;;;;;;;5.27;4.77;;;;;;;12.64;82.94;95960.28;5014345;28;20192;-86
2022/11/12 06:04:16;;;;;;;5.40;4.90;;;;;;;12.69;82.88;95959.91;5014309;28;20236;-83
2022/11/12 06:06:44;;;;;;;5.03;4.63;;;;;;;12.75;82.80;95962.03;5014030;28;20208;-87
2022/11/12 06:09:11;;;;;;;5.77;5.27;;;;;;;12.80;82.85;95963.28;5014043;28;20653;-84
2022/11/12 06:11:38;;;;;;;6.70;5.57;;;;;;;12.82;82.63;95952.88;5014618;28;20199;-83
2022/11/12 06:14:08;;;;;;;4.83;4.43;;;;;;;12.86;82.55;95946.59;5014407;28;20246;-82
2022/11/12 06:16:37;;;;;;;5.40;4.90;;;;;;;12.75;82.48;95910.69;5013371;28;20207;-87
2022/11/12 06:19:04;;;;;;;6.17;5.20;;;;;;;13.28;82.58;95964.69;5014845;28;20184;-80
2022/11/12 06:21:31;;;;;;;12.97;6.83;;;;;;;13.68;100.00;95971.75;5014765;28;20622;-81
2022/11/12 06:24:01;;;;;;;11.73;7.10;;;;;;;14.43;100.00;95965.53;5012697;28;20220;-80
2022/11/12 06:26:29;;;;;;;17.03;7.03;;;;;;;15.23;100.00;95967.22;5013252;28;20577;-79
2022/11/12 06:28:56;;;;;;;11.30;5.83;;;;;;;16.01;100.00;95961.06;5013325;28;20192;-84
2022/11/12 06:31:23;;;;;;;14.50;6.57;;;;;;;16.67;100.00;95957.56;5015204;28;20659;-82
2022/11/12 06:33:52;;;;;;;11.03;5.93;;;;;;;17.13;100.00;95958.38;5020032;28;20258;-84
2022/11/12 06:36:20;;;;;;;7.13;6.13;;;;;;;17.50;100.00;95955.66;5020585;28;20189;-82
2022/11/12 06:38:47;;;;;;;12.37;5.53;;;;;;;17.70;100.00;95932.19;5015808;28;20643;-81
2022/11/12 06:41:17;;;;;;;26.70;7.00;;;;;;;18.15;98.05;95960.50;5020845;28;20196;-85
2022/11/12 06:43:49;;;;;;;6.67;5.93;;;;;;;18.46;93.79;95971.19;5029879;28;20199;-81
2022/11/12 06:46:26;;;;;;;7.63;6.10;;;;;;;18.75;90.53;95983.00;5018227;28;20192;-83
2022/11/12 06:48:58;;;;;;;6.93;5.73;;;;;;;19.08;87.16;95976.13;5016307;28;20284;-85
2022/11/12 06:51:27;;;;;;;9.80;5.23;;;;;;;19.38;84.35;95989.47;5017623;28;20675;-81
2022/11/12 06:53:58;;;;;;;6.77;4.80;;;;;;;19.62;81.98;95988.72;5013446;28;20207;-81
2022/11/12 06:56:35;;;;;;;6.33;5.70;;;;;;;19.44;81.17;95940.38;5014192;28;20188;-80
2022/11/12 06:59:02;;;;;;;6.97;5.40;;;;;;;19.72;79.86;95977.19;5013687;28;20195;-79
2022/11/12 07:01:32;;;;;;;6.57;5.60;;;;;;;19.71;77.94;95990.34;5012978;28;20647;-79
2022/11/12 07:04:00;;;;;;;5.80;5.20;;;;;;;19.58;76.72;95984.81;5012970;28;20228;-82
2022/11/12 07:06:28;;;;;;;9.03;5.60;;;;;;;19.26;71.78;95965.66;5011128;28;20668;-90
2022/11/12 07:08:59;;;;;;;6.43;5.60;;;;;;;18.94;65.52;95971.56;4997136;28;20192;-87
2022/11/12 07:11:26;;;;;;;5.80;5.30;;;;;;;18.52;61.56;95975.75;4994933;28;20279;-83
2022/11/12 07:13:53;;;;;;;7.73;5.83;;;;;;;18.13;59.89;95971.97;4990568;28;20189;-79
2022/11/12 07:16:22;;;;;;;5.87;5.37;;;;;;;17.86;60.75;95984.09;4991319;28;20196;-80
2022/11/12 07:18:49;;;;;;;7.00;5.77;;;;;;;17.64;61.92;95974.19;4993249;28;20266;-86
2022/11/12 07:21:21;;;;;;;6.83;6.07;;;;;;;17.45;62.75;95977.75;5006978;28;20295;-84
2022/11/12 07:23:50;;;;;;;9.33;6.73;;;;;;;16.87;62.75;95908.38;5009660;28;20203;-83
2022/11/12 07:26:22;;;;;;;6.77;5.53;;;;;;;17.16;63.68;95972.81;4998943;28;20197;-84
2022/11/12 07:28:54;;;;;;;7.30;5.60;;;;;;;17.01;65.56;95962.13;5003455;28;20181;-86
2022/11/12 07:31:25;;;;;;;7.60;5.87;;;;;;;16.98;67.03;95971.00;4993232;28;20291;-82
2022/11/12 07:33:59;;;;;;;7.53;6.10;;;;;;;16.90;68.14;95975.28;4976771;28;20668;-82
2022/11/12 07:36:30;;;;;;;7.93;5.63;;;;;;;16.70;68.87;95954.66;4975129;28;20197;-85
2022/11/12 07:38:58;;;;;;;6.73;5.90;;;;;;;16.71;69.20;95970.97;4974587;28;20190;-85
2022/11/12 07:41:26;;;;;;;7.13;5.23;;;;;;;16.63;69.62;95970.91;4975648;28;20252;-84
2022/11/12 07:43:54;;;;;;;5.50;4.53;;;;;;;16.55;70.11;95969.84;4981405;28;20568;-90
2022/11/12 07:46:24;;;;;;;8.70;6.00;;;;;;;16.47;70.54;95972.31;4992983;28;20203;-89
2022/11/12 07:48:52;;;;;;;6.67;5.47;;;;;;;16.27;70.91;95945.75;4991669;28;20571;-82
2022/11/12 07:51:21;;;;;;;6.27;5.00;;;;;;;16.38;71.21;95968.00;4992584;28;20193;-84
2022/11/12 07:53:50;;;;;;;6.17;5.50;;;;;;;16.09;71.51;95939.72;4992385;28;20185;-83
2022/11/12 07:56:19;;;;;;;6.53;4.80;;;;;;;16.20;71.90;95961.97;4991193;28;20596;-85
2022/11/12 07:58:47;;;;;;;5.70;5.20;;;;;;;16.22;71.96;95970.38;4995083;28;20181;-87
2022/11/12 08:01:24;;;;;;;6.57;4.70;;;;;;;16.19;72.42;95976.66;4995315;28;20199;-89
2022/11/12 08:03:51;;;;;;;5.83;4.70;;;;;;;16.08;72.35;95961.31;4992517;28;20556;-85
2022/11/12 08:06:20;;;;;;;5.47;4.97;;;;;;;16.12;72.48;95977.34;5009795;28;20215;-84
2022/11/12 08:08:51;;;;;;;7.60;5.73;;;;;;;16.02;72.75;95964.47;5012054;28;20181;-85
2022/11/12 08:11:18;;;;;;;5.90;4.87;;;;;;;16.04;72.77;95981.44;4999297;28;20201;-93
2022/11/12 08:13:49;;;;;;;5.93;4.60;;;;;;;16.01;72.65;95976.53;5000219;28;20192;-90
2022/11/12 08:19:01;;;;;;;6.43;5.10;;;;;;;15.79;72.34;95949.28;5011733;28;20212;-87
2022/11/12 08:21:30;;;;;;;4.70;4.30;;;;;;;15.96;72.63;95981.31;4995522;28;20554;-88
2022/11/12 08:24:00;;;;;;;5.47;4.90;;;;;;;15.94;73.05;95988.38;4998949;28;20665;-85
2022/11/12 08:26:27;;;;;;;6.37;4.50;;;;;;;15.85;73.13;95973.75;4998570;28;20268;-86
2022/11/12 08:28:57;;;;;;;5.03;4.53;;;;;;;15.62;73.22;95931.09;5002652;28;20195;-86
2022/11/12 08:31:25;;;;;;;7.47;4.50;;;;;;;15.47;72.63;95910.09;5008652;28;20217;-91
2022/11/12 08:33:53;;;;;;;4.60;4.13;;;;;;;15.82;72.78;95968.84;5009308;28;20192;-86
2022/11/12 08:36:23;;;;;;;5.53;4.30;;;;;;;15.68;72.75;95951.22;5008359;28;20208;-89
2022/11/12 08:38:57;;;;;;;5.67;5.10;;;;;;;15.93;73.21;95991.09;5011931;28;20217;-91
2022/11/12 08:41:35;;;;;;;6.93;4.87;;;;;;;15.93;73.27;95983.34;5015583;28;20197;-88
2022/11/12 08:44:05;;;;;;;5.90;5.00;;;;;;;15.83;73.36;95975.63;5016865;28;20185;-88
2022/11/12 08:46:42;;;;;;;6.17;4.63;;;;;;;15.40;73.44;95903.84;5012450;28;20666;-89
2022/11/12 08:51:50;;;;;;;5.63;4.93;;;;;;;15.86;72.84;95995.19;5012433;28;20189;-87
2022/11/12 08:54:30;;;;;;;6.70;4.97;;;;;;;15.79;72.95;95976.84;4997067;28;20237;-89
2022/11/12 08:57:01;;;;;;;7.47;5.20;;;;;;;15.61;72.98;95950.13;5012461;28;20193;-87
2022/11/12 08:59:27;;;;;;;5.67;5.17;;;;;;;15.83;72.77;95983.38;5011418;28;20197;-88
2022/11/12 09:01:56;;;;;;;6.90;5.20;;;;;;;15.89;72.93;95984.56;5012872;28;20239;-87
2022/11/12 09:04:25;;;;;;;6.73;4.63;;;;;;;16.01;72.80;95986.03;5011715;28;20240;-89
2022/11/12 09:06:52;;;;;;;6.73;5.37;;;;;;;16.04;73.26;95985.78;5009655;28;20212;-88
2022/11/12 09:09:19;;;;;;;5.93;4.90;;;;;;;16.18;73.21;95979.34;4999898;28;20589;-91
2022/11/12 09:11:52;;;;;;;6.57;4.07;;;;;;;16.24;73.27;95981.38;5003673;28;20201;-88
2022/11/12 09:14:26;;;;;;;6.80;4.70;;;;;;;16.38;73.54;95985.28;4991916;28;20201;-89
2022/11/12 09:16:53;;;;;;;5.00;4.57;;;;;;;16.38;73.53;95972.38;5011041;28;20219;-87
2022/11/12 09:19:20;;;;;;;11.57;4.40;;;;;;;16.16;73.60;95927.88;5003808;28;20625;-89
2022/11/12 09:21:51;;;;;;;5.27;4.67;;;;;;;16.31;73.55;95944.53;5000684;28;20276;-86
2022/11/12 09:24:21;;;;;;;5.47;4.67;;;;;;;16.62;73.61;95988.16;5002540;28;20188;-90
2022/11/12 09:26:52;;;;;;;4.67;4.27;;;;;;;16.68;73.62;95985.00;5011888;28;20268;-89
2022/11/12 09:29:23;;;;;;;4.50;4.10;;;;;;;16.71;72.64;95989.06;5016301;28;20191;-88
2022/11/12 09:31:51;;;;;;;4.67;4.27;;;;;;;16.68;72.22;95985.00;5015333;28;20185;-89
2022/11/12 09:34:18;;;;;;;4.70;3.90;;;;;;;16.39;72.24;95941.22;5013564;28;20236;-89
2022/11/12 09:36:45;;;;;;;5.83;4.10;;;;;;;16.11;72.11;95906.84;4996944;28;20240;-88
2022/11/12 09:39:12;;;;;;;5.97;4.07;;;;;;;16.10;72.49;95906.97;4992887;28;20636;-90
2022/11/12 09:41:42;;;;;;;4.77;4.37;;;;;;;16.17;72.38;95939.00;4993828;28;20208;-89
2022/11/12 09:44:17;;;;;;;5.43;4.37;;;;;;;16.23;72.41;95959.09;4993614;28;20204;-87
2022/11/12 09:46:49;;;;;;;6.30;3.90;;;;;;;16.19;72.19;95962.91;4992582;28;20604;-88
2022/11/12 09:49:23;;;;;;;4.60;3.80;;;;;;;16.25;72.04;95983.81;4992763;28;20220;-90
2022/11/12 09:51:54;;;;;;;5.43;4.40;;;;;;;16.20;71.89;95991.19;4993373;28;20219;-90
2022/11/12 09:54:27;;;;;;;5.43;4.30;;;;;;;16.12;71.50;95998.81;4993318;28;20211;-91
2022/11/12 09:56:56;;;;;;;5.00;3.80;;;;;;;15.89;71.46;95969.94;4994345;28;20197;-91
2022/11/12 09:59:27;;;;;;;4.30;3.97;;;;;;;16.02;71.53;95990.28;4992193;28;20204;-91
2022/11/12 10:02:07;;;;;;;4.17;3.77;;;;;;;15.94;71.57;95985.81;4992876;28;20201;-91
2022/11/12 10:05:03;;;;;;;4.60;4.10;;;;;;;15.68;71.73;95946.88;4999836;28;20231;-92
2022/11/12 10:07:46;;;;;;;4.30;3.83;;;;;;;15.94;71.55;95982.41;5012749;28;20556;-89
2022/11/12 10:10:22;;;;;;;4.10;3.70;;;;;;;15.97;71.24;95985.50;5012692;28;20196;-91
2022/11/12 10:13:13;;;;;;;5.97;4.23;;;;;;;16.02;71.30;95982.53;5012228;28;20227;-88
2022/11/12 10:19:14;;;;;;;3.20;3.00;;;;;;;16.09;70.77;95982.78;5012582;28;20242;-89
2022/11/12 10:21:51;;;;;;;3.77;3.17;;;;;;;16.10;70.90;95990.38;4994078;28;20262;-91
2022/11/12 10:24:24;;;;;;;3.60;3.30;;;;;;;15.93;70.97;95960.13;4993163;28;20197;-93
2022/11/12 10:26:58;;;;;;;4.10;3.70;;;;;;;16.08;70.86;95984.53;4992736;28;20232;-89
2022/11/12 10:29:33;;;;;;;3.57;3.27;;;;;;;16.11;71.32;95981.69;4995890;28;20272;-90
2022/11/12 10:32:02;;;;;;;4.20;3.27;;;;;;;15.98;71.36;95966.50;5005005;28;20196;-92
2022/11/12 10:34:31;;;;;;;5.93;3.50;;;;;;;15.87;71.13;95945.22;5005130;28;20193;-88
2022/11/12 10:37:07;;;;;;;3.37;3.07;;;;;;;16.03;71.12;95990.13;5005273;28;20632;-91
2022/11/12 10:39:36;;;;;;;3.23;2.93;;;;;;;15.97;71.34;95980.34;5004173;28;20212;-89
2022/11/12 10:42:11;;;;;;;3.50;3.20;;;;;;;15.85;71.31;95968.59;5021738;28;20252;-90
2022/11/12 10:44:43;;;;;;;3.40;3.10;;;;;;;15.69;71.25;95950.28;5037414;28;20223;-90
2022/11/12 10:47:30;;;;;;;3.70;3.40;;;;;;;15.87;71.18;95986.50;5037346;28;20196;-92
2022/11/12 10:50:23;;;;;;;3.17;2.87;;;;;;;15.42;71.54;95928.56;5030346;28;20753;-91
2022/11/12 10:52:55;;;;;;;4.03;3.63;;;;;;;15.74;71.35;95984.19;5016284;28;20559;-90
2022/11/12 10:55:28;;;;;;;3.87;3.37;;;;;;;15.43;71.18;95944.84;5016850;28;20226;-90
2022/11/12 10:58:18;;;;;;;5.50;3.27;;;;;;;15.65;71.11;95990.19;5016320;28;20185;-91
2022/11/12 11:00:54;;;;;;;3.60;3.30;;;;;;;15.61;71.06;95981.06;5018073;28;20192;-91
2022/11/12 11:03:33;;;;;;;4.43;3.47;;;;;;;15.58;71.17;95982.13;5017615;28;20219;-91
2022/11/12 11:06:04;;;;;;;3.80;3.50;;;;;;;15.55;71.17;95988.41;5016687;28;20267;-88
2022/11/12 11:08:42;;;;;;;4.23;3.20;;;;;;;15.46;71.58;95973.75;5016088;28;20218;-91
2022/11/12 11:11:28;;;;;;;3.50;3.20;;;;;;;15.52;71.57;95980.94;5016553;28;20200;-90
2022/11/12 11:14:19;;;;;;;4.03;3.47;;;;;;;15.59;71.54;95988.94;5017978;28;20250;-90
2022/11/12 11:16:56;;;;;;;4.03;3.47;;;;;;;15.25;71.65;95930.06;5018295;28;20204;-89
2022/11/12 11:19:28;;;;;;;3.50;2.97;;;;;;;15.61;71.66;95974.13;5019627;28;20219;-89
2022/11/12 11:22:08;;;;;;;5.23;3.40;;;;;;;15.47;71.73;95967.63;5020413;28;20623;-90
2022/11/12 11:24:42;;;;;;;4.13;3.73;;;;;;;15.54;71.52;95973.88;5025242;28;20188;-93
2022/11/12 11:27:22;;;;;;;3.87;3.33;;;;;;;15.62;71.50;95980.09;5026848;28;20223;-89
2022/11/12 11:30:02;;;;;;;3.73;3.40;;;;;;;15.27;71.78;95917.84;5020105;28;20202;-91
2022/11/12 11:33:05;;;;;;;3.23;2.97;;;;;;;15.61;71.61;95986.22;5022106;28;20223;-91
2022/11/12 11:35:55;;;;;;;4.97;3.67;;;;;;;15.45;71.82;95968.69;5029797;28;20275;-91
2022/11/12 11:38:50;;;;;;;4.43;4.00;;;;;;;15.15;71.72;95926.66;5030122;28;20683;-90
2022/11/12 11:41:48;;;;;;;4.03;3.67;;;;;;;15.51;71.88;95989.63;5028333;28;20192;-90
2022/11/12 11:44:49;;;;;;;4.33;3.93;;;;;;;15.39;71.75;95970.06;4953378;29;20209;-88
2022/11/12 11:47:40;;;;;;;4.07;3.43;;;;;;;15.49;71.76;95980.38;4957397;28;20278;-89
2022/11/12 11:50:47;;;;;;;3.63;3.33;;;;;;;15.49;71.66;95981.19;4953700;29;20199;-88
2022/11/12 11:53:26;;;;;;;3.60;3.30;;;;;;;15.50;71.62;95992.31;4953033;29;20194;-89
2022/11/12 11:55:57;;;;;;;3.93;3.20;;;;;;;15.49;71.84;95983.75;4951935;29;20195;-88
2022/11/12 11:59:08;;;;;;;3.60;3.30;;;;;;;15.42;71.89;95980.13;4955944;28;20201;-89
2022/11/12 12:02:12;;;;;;;3.63;3.33;;;;;;;15.50;71.87;95992.31;4902970;29;20220;-87
2022/11/12 12:04:50;;;;;;;10.43;3.37;;;;;;;15.00;72.17;95913.38;4919479;29;20292;-90
2022/11/12 12:07:31;;;;;;;4.93;3.30;;;;;;;15.44;72.01;95988.53;4919174;29;20319;-91
2022/11/12 12:10:06;;;;;;;3.43;3.10;;;;;;;15.44;72.23;95985.13;4917530;29;20185;-92
2022/11/12 12:12:51;;;;;;;3.97;3.23;;;;;;;15.23;72.37;95960.28;4909083;29;20282;-90